Alanson, Michigan
Current Conditions -  °F | °C
As of 11:54 PM on Saturday 25 Oct 2014 (Local Time) from KMGN Reporting Station
Clear Clear  
Wind Chill: 52°   Ceiling: Unl
Heat Index: 52°   Visibility: 10mi
Dew Point: 33°   Wind: 15mph
Humidity: 49%   Direction: 290°WNW
Pressure: 29.77"   Gusts: 22mph
Location:  45.44°N, 84.79°W
Report Text: KMGN 260354Z AUTO 29013G19KT 10SM CLR 11/00 A2977 RMK AO2 T01090004
Loading
Personal Weather Stations






























Interactive Weather Map New forecast layout! Learn more

10-Day Weather Forecast

Advertisements
Track Severe Weather on mobile